sensor_id;sensor_type;location;lat;lon;timestamp;pressure;altitude;pressure_sealevel;temperature;humidity
7966;BME280;4028;43.272;26.932;2023-11-19T00:01:35;98556.75;;;2.14;100.00
7966;BME280;4028;43.272;26.932;2023-11-19T00:04:00;98539.56;;;2.12;100.00
7966;BME280;4028;43.272;26.932;2023-11-19T00:06:26;98551.84;;;2.09;100.00
7966;BME280;4028;43.272;26.932;2023-11-19T00:08:52;98580.06;;;2.17;100.00
7966;BME280;4028;43.272;26.932;2023-11-19T00:11:17;98583.38;;;2.19;100.00
7966;BME280;4028;43.272;26.932;2023-11-19T00:13:43;98567.34;;;2.25;100.00
7966;BME280;4028;43.272;26.932;2023-11-19T00:16:08;98572.75;;;2.22;100.00
7966;BME280;4028;43.272;26.932;2023-11-19T00:18:35;98595.19;;;2.25;100.00
7966;BME280;4028;43.272;26.932;2023-11-19T00:21:01;98574.13;;;2.15;100.00
7966;BME280;4028;43.272;26.932;2023-11-19T00:23:27;98599.50;;;2.26;100.00
7966;BME280;4028;43.272;26.932;2023-11-19T00:25:53;98591.66;;;2.26;100.00
7966;BME280;4028;43.272;26.932;2023-11-19T00:28:18;98563.88;;;1.99;100.00
7966;BME280;4028;43.272;26.932;2023-11-19T00:30:44;98601.34;;;2.24;100.00
7966;BME280;4028;43.272;26.932;2023-11-19T00:33:09;98611.19;;;2.20;100.00
7966;BME280;4028;43.272;26.932;2023-11-19T00:35:35;98625.78;;;2.23;100.00
7966;BME280;4028;43.272;26.932;2023-11-19T00:38:01;98617.75;;;2.26;100.00
7966;BME280;4028;43.272;26.932;2023-11-19T00:40:26;98628.41;;;2.23;100.00
7966;BME280;4028;43.272;26.932;2023-11-19T00:42:52;98622.78;;;2.16;100.00
7966;BME280;4028;43.272;26.932;2023-11-19T00:45:17;98625.47;;;2.15;100.00
7966;BME280;4028;43.272;26.932;2023-11-19T00:47:43;98618.91;;;2.22;100.00
7966;BME280;4028;43.272;26.932;2023-11-19T00:50:09;98620.34;;;2.13;100.00
7966;BME280;4028;43.272;26.932;2023-11-19T00:52:35;98635.06;;;2.14;100.00
7966;BME280;4028;43.272;26.932;2023-11-19T00:55:01;98616.50;;;2.06;100.00
7966;BME280;4028;43.272;26.932;2023-11-19T00:57:26;98645.72;;;2.11;100.00
7966;BME280;4028;43.272;26.932;2023-11-19T00:59:52;98614.38;;;1.98;100.00
7966;BME280;4028;43.272;26.932;2023-11-19T01:02:17;98641.53;;;2.08;100.00
7966;BME280;4028;43.272;26.932;2023-11-19T01:04:43;98640.41;;;2.13;100.00
7966;BME280;4028;43.272;26.932;2023-11-19T01:07:09;98640.41;;;2.13;100.00
7966;BME280;4028;43.272;26.932;2023-11-19T01:09:38;98661.81;;;2.18;100.00
7966;BME280;4028;43.272;26.932;2023-11-19T01:12:03;98640.81;;;2.19;100.00
7966;BME280;4028;43.272;26.932;2023-11-19T01:14:29;98649.47;;;2.20;100.00
7966;BME280;4028;43.272;26.932;2023-11-19T01:16:55;98639.03;;;2.20;100.00
7966;BME280;4028;43.272;26.932;2023-11-19T01:19:23;98670.28;;;2.21;100.00
7966;BME280;4028;43.272;26.932;2023-11-19T01:21:50;98648.75;;;2.18;100.00
7966;BME280;4028;43.272;26.932;2023-11-19T01:24:16;98651.88;;;2.23;100.00
7966;BME280;4028;43.272;26.932;2023-11-19T01:26:43;98662.97;;;2.26;100.00
7966;BME280;4028;43.272;26.932;2023-11-19T01:29:13;98658.78;;;2.24;100.00
7966;BME280;4028;43.272;26.932;2023-11-19T01:31:43;98669.44;;;2.21;100.00
7966;BME280;4028;43.272;26.932;2023-11-19T01:34:10;98643.31;;;2.08;100.00
7966;BME280;4028;43.272;26.932;2023-11-19T01:36:37;98647.59;;;2.09;100.00
7966;BME280;4028;43.272;26.932;2023-11-19T01:39:03;98687.91;;;2.18;100.00
7966;BME280;4028;43.272;26.932;2023-11-19T01:41:34;98662.44;;;2.21;100.00
7966;BME280;4028;43.272;26.932;2023-11-19T01:44:00;98667.56;;;2.23;100.00
7966;BME280;4028;43.272;26.932;2023-11-19T01:46:25;98640.47;;;1.98;100.00
7966;BME280;4028;43.272;26.932;2023-11-19T01:48:52;98671.59;;;2.14;100.00
7966;BME280;4028;43.272;26.932;2023-11-19T01:51:19;98673.47;;;1.99;100.00
7966;BME280;4028;43.272;26.932;2023-11-19T01:53:47;98666.69;;;2.09;100.00
7966;BME280;4028;43.272;26.932;2023-11-19T01:56:14;98670.53;;;2.04;100.00
7966;BME280;4028;43.272;26.932;2023-11-19T01:58:41;98685.81;;;2.10;100.00
7966;BME280;4028;43.272;26.932;2023-11-19T02:01:10;98665.78;;;2.11;100.00
7966;BME280;4028;43.272;26.932;2023-11-19T02:03:36;98683.06;;;1.99;100.00
7966;BME280;4028;43.272;26.932;2023-11-19T02:06:03;98697.59;;;2.03;100.00
7966;BME280;4028;43.272;26.932;2023-11-19T02:08:29;98671.25;;;1.93;100.00
7966;BME280;4028;43.272;26.932;2023-11-19T02:10:55;98668.78;;;2.04;100.00
7966;BME280;4028;43.272;26.932;2023-11-19T02:13:24;98676.06;;;1.99;100.00
7966;BME280;4028;43.272;26.932;2023-11-19T02:15:50;98691.00;;;1.97;100.00
7966;BME280;4028;43.272;26.932;2023-11-19T02:18:25;98667.53;;;1.97;100.00
7966;BME280;4028;43.272;26.932;2023-11-19T02:20:53;98694.56;;;1.96;100.00
7966;BME280;4028;43.272;26.932;2023-11-19T02:23:20;98704.03;;;1.97;100.00
7966;BME280;4028;43.272;26.932;2023-11-19T02:28:36;98703.94;;;1.99;100.00
7966;BME280;4028;43.272;26.932;2023-11-19T02:31:03;98710.31;;;1.95;100.00
7966;BME280;4028;43.272;26.932;2023-11-19T02:33:35;98718.16;;;1.95;100.00
7966;BME280;4028;43.272;26.932;2023-11-19T02:36:02;98729.50;;;1.94;100.00
7966;BME280;4028;43.272;26.932;2023-11-19T02:38:29;98715.44;;;1.96;100.00
7966;BME280;4028;43.272;26.932;2023-11-19T02:40:56;98706.78;;;1.96;100.00
7966;BME280;4028;43.272;26.932;2023-11-19T02:43:22;98701.00;;;1.91;100.00
7966;BME280;4028;43.272;26.932;2023-11-19T02:45:48;98714.69;;;1.94;100.00
7966;BME280;4028;43.272;26.932;2023-11-19T02:48:13;98719.16;;;1.92;100.00
7966;BME280;4028;43.272;26.932;2023-11-19T02:50:41;98708.78;;;1.78;100.00
7966;BME280;4028;43.272;26.932;2023-11-19T02:53:07;98721.97;;;1.89;100.00
7966;BME280;4028;43.272;26.932;2023-11-19T02:55:32;98714.13;;;1.89;100.00
7966;BME280;4028;43.272;26.932;2023-11-19T02:58:03;98733.34;;;1.88;100.00
7966;BME280;4028;43.272;26.932;2023-11-19T03:00:34;98727.03;;;1.78;100.00
7966;BME280;4028;43.272;26.932;2023-11-19T03:03:08;98730.41;;;1.80;100.00
7966;BME280;4028;43.272;26.932;2023-11-19T03:05:46;98742.50;;;1.81;100.00
7966;BME280;4028;43.272;26.932;2023-11-19T03:08:12;98712.97;;;1.80;100.00
7966;BME280;4028;43.272;26.932;2023-11-19T03:10:38;98725.56;;;1.74;100.00
7966;BME280;4028;43.272;26.932;2023-11-19T03:13:04;98727.34;;;1.73;100.00
7966;BME280;4028;43.272;26.932;2023-11-19T03:15:29;98711.38;;;1.65;100.00
7966;BME280;4028;43.272;26.932;2023-11-19T03:17:55;98729.88;;;1.75;100.00
7966;BME280;4028;43.272;26.932;2023-11-19T03:20:20;98739.75;;;1.70;100.00
7966;BME280;4028;43.272;26.932;2023-11-19T03:22:46;98737.69;;;1.75;100.00
7966;BME280;4028;43.272;26.932;2023-11-19T03:25:12;98737.88;;;1.72;100.00
7966;BME280;4028;43.272;26.932;2023-11-19T03:27:38;98742.16;;;1.73;100.00
7966;BME280;4028;43.272;26.932;2023-11-19T03:30:08;98770.66;;;1.76;100.00
7966;BME280;4028;43.272;26.932;2023-11-19T03:32:35;98728.59;;;1.53;100.00
7966;BME280;4028;43.272;26.932;2023-11-19T03:35:01;98765.44;;;1.76;100.00
7966;BME280;4028;43.272;26.932;2023-11-19T03:37:29;98762.84;;;1.76;100.00
7966;BME280;4028;43.272;26.932;2023-11-19T03:39:56;98770.22;;;1.69;100.00
7966;BME280;4028;43.272;26.932;2023-11-19T03:42:25;98761.47;;;1.70;100.00
7966;BME280;4028;43.272;26.932;2023-11-19T03:44:52;98775.13;;;1.74;100.00
7966;BME280;4028;43.272;26.932;2023-11-19T03:47:18;98761.25;;;1.73;100.00
7966;BME280;4028;43.272;26.932;2023-11-19T03:49:50;98712.09;;;1.40;100.00
7966;BME280;4028;43.272;26.932;2023-11-19T03:52:16;98744.78;;;1.59;100.00
7966;BME280;4028;43.272;26.932;2023-11-19T03:54:42;98758.19;;;1.67;100.00
7966;BME280;4028;43.272;26.932;2023-11-19T03:57:07;98768.44;;;1.70;100.00
7966;BME280;4028;43.272;26.932;2023-11-19T03:59:33;98775.06;;;1.75;100.00
7966;BME280;4028;43.272;26.932;2023-11-19T04:01:59;98777.94;;;1.71;100.00
7966;BME280;4028;43.272;26.932;2023-11-19T04:04:26;98773.75;;;1.68;100.00
7966;BME280;4028;43.272;26.932;2023-11-19T04:06:53;98796.38;;;1.68;100.00
7966;BME280;4028;43.272;26.932;2023-11-19T04:09:18;98786.88;;;1.67;100.00
7966;BME280;4028;43.272;26.932;2023-11-19T04:11:44;98778.78;;;1.71;100.00
7966;BME280;4028;43.272;26.932;2023-11-19T04:14:12;98794.53;;;1.70;100.00
7966;BME280;4028;43.272;26.932;2023-11-19T04:16:38;98780.84;;;1.66;100.00
7966;BME280;4028;43.272;26.932;2023-11-19T04:19:04;98777.19;;;1.69;100.00
7966;BME280;4028;43.272;26.932;2023-11-19T04:21:29;98786.97;;;1.79;100.00
7966;BME280;4028;43.272;26.932;2023-11-19T04:23:55;98784.25;;;1.81;100.00
7966;BME280;4028;43.272;26.932;2023-11-19T04:26:21;98810.34;;;1.81;100.00
7966;BME280;4028;43.272;26.932;2023-11-19T04:28:46;98807.53;;;1.84;100.00
7966;BME280;4028;43.272;26.932;2023-11-19T04:31:16;98805.66;;;1.86;100.00
7966;BME280;4028;43.272;26.932;2023-11-19T04:33:42;98816.75;;;1.90;100.00
7966;BME280;4028;43.272;26.932;2023-11-19T04:36:09;98783.72;;;1.62;100.00
7966;BME280;4028;43.272;26.932;2023-11-19T04:38:35;98818.72;;;1.86;100.00
7966;BME280;4028;43.272;26.932;2023-11-19T04:41:00;98818.81;;;1.85;100.00
7966;BME280;4028;43.272;26.932;2023-11-19T04:43:26;98823.09;;;1.86;100.00
7966;BME280;4028;43.272;26.932;2023-11-19T04:45:52;98809.22;;;1.85;100.00
7966;BME280;4028;43.272;26.932;2023-11-19T04:48:17;98808.47;;;1.83;100.00
7966;BME280;4028;43.272;26.932;2023-11-19T04:50:43;98807.34;;;1.87;100.00
7966;BME280;4028;43.272;26.932;2023-11-19T04:53:08;98802.00;;;1.89;100.00
7966;BME280;4028;43.272;26.932;2023-11-19T04:55:34;98805.56;;;1.88;100.00
7966;BME280;4028;43.272;26.932;2023-11-19T04:57:59;98797.28;;;1.81;100.00
7966;BME280;4028;43.272;26.932;2023-11-19T05:00:25;98796.66;;;1.77;100.00
7966;BME280;4028;43.272;26.932;2023-11-19T05:02:51;98769.31;;;1.56;100.00
7966;BME280;4028;43.272;26.932;2023-11-19T05:05:17;98802.69;;;1.78;100.00
7966;BME280;4028;43.272;26.932;2023-11-19T05:07:43;98815.91;;;1.89;100.00
7966;BME280;4028;43.272;26.932;2023-11-19T05:10:08;98794.19;;;1.89;100.00
7966;BME280;4028;43.272;26.932;2023-11-19T05:12:34;98757.06;;;1.71;100.00
7966;BME280;4028;43.272;26.932;2023-11-19T05:15:00;98796.47;;;1.80;100.00
7966;BME280;4028;43.272;26.932;2023-11-19T05:17:26;98775.31;;;1.85;100.00
7966;BME280;4028;43.272;26.932;2023-11-19T05:19:51;98798.28;;;1.93;100.00
7966;BME280;4028;43.272;26.932;2023-11-19T05:22:17;98810.50;;;1.92;100.00
7966;BME280;4028;43.272;26.932;2023-11-19T05:24:42;98809.56;;;1.93;100.00
7966;BME280;4028;43.272;26.932;2023-11-19T05:27:08;98808.81;;;1.91;100.00
7966;BME280;4028;43.272;26.932;2023-11-19T05:29:34;98800.78;;;1.94;100.00
7966;BME280;4028;43.272;26.932;2023-11-19T05:31:59;98805.16;;;1.94;100.00
7966;BME280;4028;43.272;26.932;2023-11-19T05:34:25;98811.41;;;2.05;100.00
7966;BME280;4028;43.272;26.932;2023-11-19T05:36:50;98804.78;;;2.00;100.00
7966;BME280;4028;43.272;26.932;2023-11-19T05:39:16;98825.47;;;2.03;100.00
7966;BME280;4028;43.272;26.932;2023-11-19T05:41:44;98822.00;;;2.02;100.00
7966;BME280;4028;43.272;26.932;2023-11-19T05:44:09;98781.91;;;1.91;100.00
7966;BME280;4028;43.272;26.932;2023-11-19T05:46:34;98799.59;;;2.00;100.00
7966;BME280;4028;43.272;26.932;2023-11-19T05:49:05;98815.84;;;2.03;100.00
7966;BME280;4028;43.272;26.932;2023-11-19T05:51:31;98820.69;;;2.09;100.00
7966;BME280;4028;43.272;26.932;2023-11-19T05:53:56;98800.00;;;2.06;100.00
7966;BME280;4028;43.272;26.932;2023-11-19T05:56:23;98816.41;;;2.08;100.00
7966;BME280;4028;43.272;26.932;2023-11-19T05:58:48;98831.88;;;2.12;100.00
7966;BME280;4028;43.272;26.932;2023-11-19T06:01:16;98828.22;;;2.14;100.00
7966;BME280;4028;43.272;26.932;2023-11-19T06:03:42;98827.19;;;2.17;100.00
7966;BME280;4028;43.272;26.932;2023-11-19T06:06:08;98837.41;;;2.20;100.00
7966;BME280;4028;43.272;26.932;2023-11-19T06:08:34;98837.75;;;2.15;100.00
7966;BME280;4028;43.272;26.932;2023-11-19T06:11:00;98853.75;;;2.23;100.00
7966;BME280;4028;43.272;26.932;2023-11-19T06:13:26;98848.81;;;2.19;100.00
7966;BME280;4028;43.272;26.932;2023-11-19T06:15:52;98843.69;;;2.17;100.00
7966;BME280;4028;43.272;26.932;2023-11-19T06:18:17;98853.47;;;2.14;100.00
7966;BME280;4028;43.272;26.932;2023-11-19T06:20:51;98857.00;;;2.27;100.00
7966;BME280;4028;43.272;26.932;2023-11-19T06:23:16;98849.81;;;2.30;100.00
7966;BME280;4028;43.272;26.932;2023-11-19T06:25:42;98844.38;;;2.33;100.00
7966;BME280;4028;43.272;26.932;2023-11-19T06:28:07;98856.25;;;2.25;100.00
7966;BME280;4028;43.272;26.932;2023-11-19T06:30:33;98847.50;;;2.26;100.00
7966;BME280;4028;43.272;26.932;2023-11-19T06:32:58;98843.09;;;2.26;100.00
7966;BME280;4028;43.272;26.932;2023-11-19T06:35:25;98839.84;;;2.23;100.00
7966;BME280;4028;43.272;26.932;2023-11-19T06:37:50;98846.84;;;2.22;100.00
7966;BME280;4028;43.272;26.932;2023-11-19T06:40:16;98848.50;;;2.23;100.00
7966;BME280;4028;43.272;26.932;2023-11-19T06:42:43;98833.69;;;2.24;100.00
7966;BME280;4028;43.272;26.932;2023-11-19T06:45:08;98844.25;;;2.35;100.00
7966;BME280;4028;43.272;26.932;2023-11-19T06:47:34;98850.25;;;2.37;100.00
7966;BME280;4028;43.272;26.932;2023-11-19T06:50:00;98853.56;;;2.39;100.00
7966;BME280;4028;43.272;26.932;2023-11-19T06:52:25;98864.97;;;2.38;100.00
7966;BME280;4028;43.272;26.932;2023-11-19T06:54:51;98879.91;;;2.36;100.00
7966;BME280;4028;43.272;26.932;2023-11-19T06:57:16;98849.09;;;2.14;100.00
7966;BME280;4028;43.272;26.932;2023-11-19T06:59:42;98845.47;;;2.17;100.00
7966;BME280;4028;43.272;26.932;2023-11-19T07:02:08;98887.63;;;2.38;100.00
7966;BME280;4028;43.272;26.932;2023-11-19T07:04:34;98860.78;;;2.08;100.00
7966;BME280;4028;43.272;26.932;2023-11-19T07:06:59;98902.56;;;2.36;100.00
7966;BME280;4028;43.272;26.932;2023-11-19T07:09:25;98912.91;;;2.37;100.00
7966;BME280;4028;43.272;26.932;2023-11-19T07:11:51;98900.94;;;2.47;100.00
7966;BME280;4028;43.272;26.932;2023-11-19T07:14:18;98897.75;;;2.56;100.00
7966;BME280;4028;43.272;26.932;2023-11-19T07:16:44;98894.84;;;2.61;100.00
7966;BME280;4028;43.272;26.932;2023-11-19T07:19:09;98895.25;;;2.68;100.00
7966;BME280;4028;43.272;26.932;2023-11-19T07:21:35;98898.19;;;2.76;100.00
7966;BME280;4028;43.272;26.932;2023-11-19T07:24:05;98901.63;;;2.76;100.00
7966;BME280;4028;43.272;26.932;2023-11-19T07:26:30;98903.88;;;2.82;100.00
7966;BME280;4028;43.272;26.932;2023-11-19T07:28:56;98897.16;;;2.78;100.00
7966;BME280;4028;43.272;26.932;2023-11-19T07:31:23;98911.94;;;2.92;100.00
7966;BME280;4028;43.272;26.932;2023-11-19T07:33:49;98917.50;;;3.00;100.00
7966;BME280;4028;43.272;26.932;2023-11-19T07:36:14;98929.22;;;3.07;100.00
7966;BME280;4028;43.272;26.932;2023-11-19T07:38:40;98929.72;;;3.00;100.00
7966;BME280;4028;43.272;26.932;2023-11-19T07:41:06;98878.56;;;2.83;100.00
7966;BME280;4028;43.272;26.932;2023-11-19T07:43:32;98937.69;;;3.11;100.00
7966;BME280;4028;43.272;26.932;2023-11-19T07:45:58;98933.94;;;3.02;100.00
7966;BME280;4028;43.272;26.932;2023-11-19T07:48:27;98918.66;;;3.09;100.00
7966;BME280;4028;43.272;26.932;2023-11-19T07:50:53;98933.31;;;3.24;100.00
7966;BME280;4028;43.272;26.932;2023-11-19T07:53:19;98931.16;;;3.44;100.00
7966;BME280;4028;43.272;26.932;2023-11-19T07:55:45;98930.81;;;3.35;100.00
7966;BME280;4028;43.272;26.932;2023-11-19T07:58:11;98915.00;;;3.37;100.00
7966;BME280;4028;43.272;26.932;2023-11-19T08:00:37;98924.75;;;3.35;100.00
7966;BME280;4028;43.272;26.932;2023-11-19T08:03:03;98920.03;;;3.27;100.00
7966;BME280;4028;43.272;26.932;2023-11-19T08:05:29;98947.03;;;3.28;100.00
7966;BME280;4028;43.272;26.932;2023-11-19T08:07:55;98950.81;;;3.36;100.00
7966;BME280;4028;43.272;26.932;2023-11-19T08:10:20;98949.84;;;3.37;100.00
7966;BME280;4028;43.272;26.932;2023-11-19T08:12:46;98961.47;;;3.46;100.00
7966;BME280;4028;43.272;26.932;2023-11-19T08:15:12;98959.16;;;3.42;100.00
7966;BME280;4028;43.272;26.932;2023-11-19T08:17:37;98951.66;;;3.62;100.00
7966;BME280;4028;43.272;26.932;2023-11-19T08:20:03;98952.09;;;3.69;100.00
7966;BME280;4028;43.272;26.932;2023-11-19T08:22:30;98945.16;;;3.81;100.00
7966;BME280;4028;43.272;26.932;2023-11-19T08:24:56;98957.53;;;3.79;100.00
7966;BME280;4028;43.272;26.932;2023-11-19T08:27:22;98949.84;;;3.88;100.00
7966;BME280;4028;43.272;26.932;2023-11-19T08:29:55;98962.84;;;3.90;100.00
7966;BME280;4028;43.272;26.932;2023-11-19T08:32:24;98952.91;;;3.95;100.00
7966;BME280;4028;43.272;26.932;2023-11-19T08:34:50;98967.44;;;3.99;100.00
7966;BME280;4028;43.272;26.932;2023-11-19T08:37:16;98978.09;;;4.22;100.00
7966;BME280;4028;43.272;26.932;2023-11-19T08:39:46;98974.91;;;4.29;100.00
7966;BME280;4028;43.272;26.932;2023-11-19T08:42:12;98973.56;;;4.24;100.00
7966;BME280;4028;43.272;26.932;2023-11-19T08:44:37;98989.00;;;4.15;100.00
7966;BME280;4028;43.272;26.932;2023-11-19T08:47:03;98993.81;;;4.09;100.00
7966;BME280;4028;43.272;26.932;2023-11-19T08:49:29;99003.03;;;4.14;100.00
7966;BME280;4028;43.272;26.932;2023-11-19T08:51:54;99006.16;;;4.20;100.00
7966;BME280;4028;43.272;26.932;2023-11-19T08:54:20;98998.50;;;4.29;100.00
7966;BME280;4028;43.272;26.932;2023-11-19T08:56:46;98954.22;;;4.13;100.00
7966;BME280;4028;43.272;26.932;2023-11-19T08:59:12;98997.47;;;4.32;100.00
7966;BME280;4028;43.272;26.932;2023-11-19T09:01:37;98995.97;;;4.40;100.00
7966;BME280;4028;43.272;26.932;2023-11-19T09:04:03;98994.19;;;4.41;100.00
7966;BME280;4028;43.272;26.932;2023-11-19T09:06:29;98996.72;;;4.30;100.00
7966;BME280;4028;43.272;26.932;2023-11-19T09:08:55;98975.16;;;4.13;100.00
7966;BME280;4028;43.272;26.932;2023-11-19T09:11:25;99007.09;;;4.31;100.00
7966;BME280;4028;43.272;26.932;2023-11-19T09:13:51;98999.03;;;4.71;100.00
7966;BME280;4028;43.272;26.932;2023-11-19T09:16:16;98991.75;;;5.22;100.00
7966;BME280;4028;43.272;26.932;2023-11-19T09:18:42;98997.69;;;5.95;100.00
7966;BME280;4028;43.272;26.932;2023-11-19T09:21:07;99000.78;;;6.45;100.00
7966;BME280;4028;43.272;26.932;2023-11-19T09:23:33;99002.66;;;6.76;100.00
7966;BME280;4028;43.272;26.932;2023-11-19T09:26:10;98990.56;;;6.74;100.00
7966;BME280;4028;43.272;26.932;2023-11-19T09:28:35;98982.81;;;7.04;100.00
7966;BME280;4028;43.272;26.932;2023-11-19T09:31:01;99004.81;;;6.60;100.00
7966;BME280;4028;43.272;26.932;2023-11-19T09:33:30;98993.06;;;6.75;100.00
7966;BME280;4028;43.272;26.932;2023-11-19T09:35:55;98989.50;;;7.09;100.00
7966;BME280;4028;43.272;26.932;2023-11-19T09:38:21;98987.19;;;7.47;100.00
7966;BME280;4028;43.272;26.932;2023-11-19T09:40:47;98975.59;;;7.80;100.00
7966;BME280;4028;43.272;26.932;2023-11-19T09:43:14;98932.47;;;7.51;100.00
7966;BME280;4028;43.272;26.932;2023-11-19T09:45:50;98980.63;;;7.42;100.00
7966;BME280;4028;43.272;26.932;2023-11-19T09:48:19;98969.38;;;7.19;100.00
7966;BME280;4028;43.272;26.932;2023-11-19T09:50:48;98959.94;;;6.84;100.00
7966;BME280;4028;43.272;26.932;2023-11-19T09:53:14;98971.38;;;6.51;100.00
7966;BME280;4028;43.272;26.932;2023-11-19T09:55:41;98968.53;;;6.32;100.00
7966;BME280;4028;43.272;26.932;2023-11-19T09:58:07;98964.59;;;6.04;100.00
7966;BME280;4028;43.272;26.932;2023-11-19T10:00:33;98956.13;;;5.89;100.00
7966;BME280;4028;43.272;26.932;2023-11-19T10:02:59;98958.22;;;5.72;100.00
7966;BME280;4028;43.272;26.932;2023-11-19T10:05:25;98964.09;;;5.76;100.00
7966;BME280;4028;43.272;26.932;2023-11-19T10:07:52;98963.03;;;5.79;100.00
7966;BME280;4028;43.272;26.932;2023-11-19T10:10:17;98966.16;;;5.95;100.00
7966;BME280;4028;43.272;26.932;2023-11-19T10:12:47;98964.09;;;5.87;100.00
7966;BME280;4028;43.272;26.932;2023-11-19T10:15:22;98984.03;;;5.90;100.00
7966;BME280;4028;43.272;26.932;2023-11-19T10:17:50;98983.59;;;5.96;100.00
7966;BME280;4028;43.272;26.932;2023-11-19T10:20:18;98961.81;;;5.83;100.00
7966;BME280;4028;43.272;26.932;2023-11-19T10:22:44;98972.72;;;6.23;100.00
7966;BME280;4028;43.272;26.932;2023-11-19T10:25:26;98974.97;;;6.39;100.00
7966;BME280;4028;43.272;26.932;2023-11-19T10:27:53;98975.81;;;6.39;100.00
7966;BME280;4028;43.272;26.932;2023-11-19T10:30:29;98972.69;;;6.34;100.00
7966;BME280;4028;43.272;26.932;2023-11-19T10:33:14;98976.41;;;6.32;100.00
7966;BME280;4028;43.272;26.932;2023-11-19T10:35:52;98967.09;;;6.50;100.00
7966;BME280;4028;43.272;26.932;2023-11-19T10:38:25;98960.84;;;6.62;100.00
7966;BME280;4028;43.272;26.932;2023-11-19T10:40:52;98952.78;;;6.75;100.00
7966;BME280;4028;43.272;26.932;2023-11-19T10:43:22;98950.38;;;6.40;100.00
7966;BME280;4028;43.272;26.932;2023-11-19T10:45:48;98941.25;;;6.66;100.00
7966;BME280;4028;43.272;26.932;2023-11-19T10:48:14;98947.09;;;7.02;100.00
7966;BME280;4028;43.272;26.932;2023-11-19T10:50:41;98954.19;;;7.22;100.00
7966;BME280;4028;43.272;26.932;2023-11-19T10:53:10;98939.47;;;7.20;100.00
7966;BME280;4028;43.272;26.932;2023-11-19T10:55:39;98945.00;;;7.38;100.00
7966;BME280;4028;43.272;26.932;2023-11-19T10:58:10;98939.59;;;7.39;100.00
7966;BME280;4028;43.272;26.932;2023-11-19T11:00:48;98936.69;;;7.21;100.00
7966;BME280;4028;43.272;26.932;2023-11-19T11:03:18;98925.25;;;7.11;100.00
7966;BME280;4028;43.272;26.932;2023-11-19T11:05:49;98932.78;;;7.16;100.00
7966;BME280;4028;43.272;26.932;2023-11-19T11:08:16;98935.69;;;7.13;100.00
7966;BME280;4028;43.272;26.932;2023-11-19T11:11:00;98937.78;;;7.19;100.00
7966;BME280;4028;43.272;26.932;2023-11-19T11:13:27;98931.19;;;7.24;100.00
7966;BME280;4028;43.272;26.932;2023-11-19T11:15:57;98920.41;;;7.27;100.00
7966;BME280;4028;43.272;26.932;2023-11-19T11:18:26;98887.22;;;7.15;100.00
7966;BME280;4028;43.272;26.932;2023-11-19T11:21:05;98931.38;;;7.33;100.00
7966;BME280;4028;43.272;26.932;2023-11-19T11:28:59;98934.03;;;7.33;100.00
7966;BME280;4028;43.272;26.932;2023-11-19T11:32:00;98931.56;;;7.41;100.00
7966;BME280;4028;43.272;26.932;2023-11-19T11:34:38;98936.44;;;7.45;100.00
7966;BME280;4028;43.272;26.932;2023-11-19T11:37:18;98929.28;;;7.47;100.00
7966;BME280;4028;43.272;26.932;2023-11-19T11:39:46;98901.78;;;7.40;100.00
7966;BME280;4028;43.272;26.932;2023-11-19T11:45:03;98925.78;;;7.47;100.00
7966;BME280;4028;43.272;26.932;2023-11-19T11:50:12;98922.44;;;7.66;100.00
7966;BME280;4028;43.272;26.932;2023-11-19T11:55:28;98922.66;;;7.32;100.00
7966;BME280;4028;43.272;26.932;2023-11-19T11:57:57;98918.16;;;7.23;100.00
7966;BME280;4028;43.272;26.932;2023-11-19T12:00:39;98926.50;;;7.28;100.00
7966;BME280;4028;43.272;26.932;2023-11-19T12:03:07;98924.88;;;7.37;100.00
7966;BME280;4028;43.272;26.932;2023-11-19T12:05:38;98911.34;;;7.20;100.00
7966;BME280;4028;43.272;26.932;2023-11-19T12:08:07;98923.44;;;7.23;100.00
7966;BME280;4028;43.272;26.932;2023-11-19T12:10:45;98925.69;;;7.27;100.00
7966;BME280;4028;43.272;26.932;2023-11-19T12:13:13;98925.22;;;7.22;100.00
7966;BME280;4028;43.272;26.932;2023-11-19T12:18:29;98935.34;;;7.06;100.00
7966;BME280;4028;43.272;26.932;2023-11-19T12:20:56;98930.03;;;6.96;100.00
7966;BME280;4028;43.272;26.932;2023-11-19T12:23:25;98929.44;;;6.93;100.00
7966;BME280;4028;43.272;26.932;2023-11-19T12:25:51;98927.25;;;6.98;100.00
7966;BME280;4028;43.272;26.932;2023-11-19T12:28:17;98933.84;;;6.92;100.00
7966;BME280;4028;43.272;26.932;2023-11-19T12:30:44;98937.19;;;6.94;100.00
7966;BME280;4028;43.272;26.932;2023-11-19T12:33:11;98918.31;;;6.89;100.00
7966;BME280;4028;43.272;26.932;2023-11-19T12:38:07;98925.28;;;6.79;100.00
7966;BME280;4028;43.272;26.932;2023-11-19T12:40:32;98934.09;;;6.89;100.00
7966;BME280;4028;43.272;26.932;2023-11-19T12:42:59;98926.72;;;6.83;100.00
7966;BME280;4028;43.272;26.932;2023-11-19T12:45:34;98936.41;;;6.83;100.00
7966;BME280;4028;43.272;26.932;2023-11-19T12:48:07;98920.63;;;6.83;100.00
7966;BME280;4028;43.272;26.932;2023-11-19T12:50:57;98928.78;;;6.68;100.00
7966;BME280;4028;43.272;26.932;2023-11-19T12:53:24;98933.97;;;6.59;100.00
7966;BME280;4028;43.272;26.932;2023-11-19T12:55:53;98935.16;;;6.66;100.00
7966;BME280;4028;43.272;26.932;2023-11-19T12:58:29;98889.47;;;6.35;100.00
7966;BME280;4028;43.272;26.932;2023-11-19T13:01:05;98938.16;;;6.61;100.00
7966;BME280;4028;43.272;26.932;2023-11-19T13:03:36;98935.00;;;6.67;100.00
7966;BME280;4028;43.272;26.932;2023-11-19T13:06:05;98941.34;;;6.65;100.00
7966;BME280;4028;43.272;26.932;2023-11-19T13:08:51;98948.06;;;6.58;100.00
7966;BME280;4028;43.272;26.932;2023-11-19T13:11:35;98940.53;;;6.53;100.00
7966;BME280;4028;43.272;26.932;2023-11-19T13:14:03;98949.53;;;6.50;100.00
7966;BME280;4028;43.272;26.932;2023-11-19T13:16:36;98947.50;;;6.43;100.00
7966;BME280;4028;43.272;26.932;2023-11-19T13:19:01;98945.13;;;6.40;100.00
7966;BME280;4028;43.272;26.932;2023-11-19T13:21:28;98947.38;;;6.44;100.00
7966;BME280;4028;43.272;26.932;2023-11-19T13:23:55;98940.69;;;6.40;100.00
7966;BME280;4028;43.272;26.932;2023-11-19T13:26:20;98936.50;;;6.38;100.00
7966;BME280;4028;43.272;26.932;2023-11-19T13:28:46;98932.69;;;6.42;100.00
7966;BME280;4028;43.272;26.932;2023-11-19T13:31:12;98928.63;;;6.38;100.00
7966;BME280;4028;43.272;26.932;2023-11-19T13:33:37;98934.16;;;6.35;100.00